| time (UTC) | temp F | wind direction | speed MPH | gust MPH | rain 1hr in | rain 24hr in | rain mn in | humidity % | barometer mb |
| 20260509070523 | 55 | 211 | 0.0 | 0.0 | 0.00 | 0.34 | 0.34 | 91 | 1007.5 |
| 20260509070048 | 55 | 233 | 0.0 | 0.0 | 0.00 | 0.34 | 0.34 | 91 | 1007.7 |
| 20260509065552 | 55 | 222 | 0.0 | 0.0 | 0.00 | 0.34 | 0.34 | 91 | 1007.6 |
| 20260509065055 | 55 | 234 | 0.0 | 0.0 | 0.00 | 0.34 | 0.34 | 91 | 1007.6 |
| 20260509064540 | 55 | 186 | 0.0 | 0.0 | 0.00 | 0.34 | 0.34 | 91 | 1007.7 |
| 20260509064023 | 56 | 219 | 0.0 | 0.0 | 0.00 | 0.34 | 0.34 | 91 | 1007.7 |
| 20260509063529 | 56 | 199 | 0.0 | 0.0 | 0.00 | 0.34 | 0.34 | 91 | 1007.6 |
| 20260509063035 | 56 | 227 | 0.0 | 0.0 | 0.00 | 0.34 | 0.34 | 91 | 1007.6 |
| 20260509062601 | 56 | 227 | 0.0 | 0.0 | 0.00 | 0.34 | 0.34 | 91 | 1007.6 |
| 20260509062023 | 56 | 227 | 0.0 | 0.0 | 0.00 | 0.34 | 0.34 | 91 | 1007.7 |
| 20260509061529 | 56 | 227 | 0.0 | 0.0 | 0.00 | 0.34 | 0.34 | 91 | 1007.7 |
| 20260509061035 | 56 | 227 | 0.0 | 0.0 | 0.00 | 0.34 | 0.34 | 90 | 1007.7 |
| 20260509060541 | 56 | 227 | 0.0 | 0.0 | 0.00 | 0.34 | 0.34 | 91 | 1007.7 |
| 20260509060031 | 56 | 227 | 0.0 | 0.0 | 0.00 | 0.34 | 0.34 | 91 | 1007.8 |
| 20260509055536 | 56 | 227 | 0.0 | 0.0 | 0.00 | 0.34 | 0.34 | 91 | 1007.8 |
| 20260509055043 | 56 | 227 | 0.0 | 0.0 | 0.00 | 0.34 | 0.34 | 90 | 1007.8 |
| 20260509054527 | 56 | 227 | 0.0 | 0.0 | 0.01 | 0.34 | 0.34 | 91 | 1007.8 |
| 20260509054034 | 56 | 227 | 0.0 | 0.0 | 0.01 | 0.34 | 0.34 | 91 | 1007.8 |
| 20260509053540 | 56 | 227 | 0.0 | 0.0 | 0.01 | 0.34 | 0.34 | 91 | 1007.9 |
| 20260509053027 | 56 | 227 | 0.0 | 0.0 | 0.01 | 0.34 | 0.34 | 91 | 1008.0 |
| 20260509052534 | 56 | 227 | 0.0 | 0.0 | 0.01 | 0.34 | 0.34 | 90 | 1008.0 |
| 20260509052040 | 56 | 227 | 0.0 | 0.0 | 0.01 | 0.34 | 0.34 | 90 | 1008.0 |
| 20260509051546 | 56 | 227 | 0.0 | 0.0 | 0.01 | 0.34 | 0.34 | 91 | 1008.1 |
| 20260509051032 | 56 | 227 | 0.0 | 0.0 | 0.01 | 0.34 | 0.34 | 90 | 1008.1 |
| 20260509050557 | 56 | 227 | 0.0 | 0.0 | 0.01 | 0.34 | 0.34 | 90 | 1008.0 |
| 20260509050027 | 56 | 227 | 0.0 | 0.0 | 0.01 | 0.34 | 0.34 | 90 | 1008.0 |
| 20260509045534 | 56 | 227 | 0.0 | 0.0 | 0.01 | 0.34 | 0.34 | 90 | 1008.0 |
| 20260509045040 | 56 | 227 | 0.0 | 0.0 | 0.01 | 0.34 | 0.34 | 90 | 1008.0 |
| 20260509044545 | 56 | 227 | 0.0 | 0.0 | 0.00 | 0.33 | 0.33 | 90 | 1008.0 |
| 20260509044050 | 56 | 227 | 0.0 | 0.0 | 0.00 | 0.33 | 0.33 | 90 | 1007.9 |
| 20260509043536 | 56 | 227 | 0.0 | 0.0 | 0.00 | 0.33 | 0.33 | 90 | 1007.9 |
| 20260509043022 | 56 | 227 | 0.0 | 0.0 | 0.00 | 0.33 | 0.33 | 90 | 1007.9 |
| 20260509042548 | 57 | 227 | 0.0 | 0.0 | 0.00 | 0.33 | 0.33 | 90 | 1008.0 |
| 20260509042033 | 57 | 227 | 0.0 | 0.0 | 0.00 | 0.33 | 0.33 | 90 | 1008.0 |
| 20260509041538 | 57 | 227 | 0.0 | 0.0 | 0.00 | 0.33 | 0.33 | 90 | 1008.0 |
| 20260509041044 | 57 | 227 | 0.0 | 0.0 | 0.00 | 0.33 | 0.33 | 90 | 1007.8 |
| 20260509040528 | 57 | 227 | 0.0 | 0.0 | 0.00 | 0.33 | 0.33 | 90 | 1007.9 |
| 20260509040053 | 57 | 227 | 0.0 | 0.0 | 0.00 | 0.33 | 0.33 | 89 | 1007.7 |
| 20260509035537 | 57 | 227 | 0.0 | 0.0 | 0.00 | 0.33 | 0.33 | 89 | 1007.8 |
| 20260509035042 | 57 | 227 | 0.0 | 0.0 | 0.00 | 0.33 | 0.33 | 89 | 1007.7 |
| 20260509034526 | 57 | 227 | 0.0 | 0.0 | 0.00 | 0.33 | 0.33 | 89 | 1007.8 |
| 20260509034034 | 58 | 227 | 0.0 | 0.0 | 0.00 | 0.33 | 0.33 | 89 | 1007.8 |
| 20260509033521 | 58 | 227 | 0.0 | 0.0 | 0.00 | 0.33 | 0.33 | 89 | 1007.8 |
| 20260509033026 | 58 | 227 | 0.0 | 0.0 | 0.02 | 0.33 | 0.33 | 89 | 1007.7 |
| 20260509032531 | 58 | 227 | 0.0 | 0.0 | 0.12 | 0.33 | 0.33 | 89 | 1007.7 |
| 20260509032037 | 58 | 227 | 0.0 | 0.0 | 0.17 | 0.33 | 0.33 | 89 | 1007.8 |
| 20260509031602 | 58 | 227 | 0.0 | 0.0 | 0.21 | 0.33 | 0.33 | 89 | 1007.7 |
| 20260509031026 | 59 | 227 | 0.0 | 0.0 | 0.21 | 0.33 | 0.33 | 89 | 1007.5 |
| 20260509030531 | 59 | 227 | 0.0 | 0.0 | 0.21 | 0.33 | 0.33 | 88 | 1007.5 |
| 20260509030037 | 59 | 227 | 0.0 | 0.0 | 0.21 | 0.33 | 0.33 | 88 | 1007.4 |
| 20260509025522 | 59 | 227 | 0.0 | 0.0 | 0.21 | 0.33 | 0.33 | 88 | 1007.4 |
| 20260509025027 | 59 | 227 | 0.0 | 0.0 | 0.21 | 0.33 | 0.33 | 88 | 1007.4 |
| 20260509024537 | 59 | 227 | 0.0 | 0.0 | 0.22 | 0.33 | 0.33 | 88 | 1007.3 |
| 20260509024102 | 60 | 227 | 0.0 | 0.0 | 0.27 | 0.33 | 0.33 | 88 | 1007.1 |
| 20260509023526 | 60 | 232 | 0.0 | 0.0 | 0.32 | 0.33 | 0.33 | 88 | 1007.1 |
| 20260509023032 | 60 | 190 | 0.0 | 0.0 | 0.31 | 0.31 | 0.31 | 88 | 1007.1 |
| 20260509022537 | 61 | 323 | 0.0 | 0.0 | 0.21 | 0.21 | 0.21 | 88 | 1007.5 |
| 20260509022022 | 61 | 86 | 0.0 | 0.0 | 0.15 | 0.15 | 0.15 | 88 | 1007.6 |
| 20260509021526 | 61 | 360 | 0.0 | 0.0 | 0.12 | 0.12 | 0.12 | 88 | 1007.6 |
| 20260509021052 | 61 | 46 | 0.0 | 0.0 | 0.12 | 0.12 | 0.12 | 88 | 1007.3 |
| 20260509020556 | 61 | 46 | 0.0 | 0.0 | 0.12 | 0.12 | 0.12 | 88 | 1007.1 |
| 20260509020100 | 61 | 47 | 0.0 | 0.0 | 0.12 | 0.12 | 0.12 | 87 | 1006.9 |
| 20260509015523 | 62 | 48 | 0.0 | 0.0 | 0.12 | 0.12 | 0.12 | 86 | 1006.6 |
| 20260509015028 | 62 | 62 | 0.0 | 1.0 | 0.12 | 0.12 | 0.12 | 85 | 1006.5 |
| 20260509014534 | 63 | 95 | 0.0 | 3.0 | 0.10 | 0.10 | 0.10 | 84 | 1006.6 |
| 20260509014022 | 64 | 333 | 0.0 | 3.0 | 0.06 | 0.06 | 0.06 | 83 | 1006.5 |
| 20260509013528 | 65 | 36 | 0.0 | 1.0 | 0.00 | 0.00 | 0.01 | 82 | 1007.2 |
| 20260509013033 | 65 | 15 | 0.0 | 1.0 | 0.00 | 0.00 | 0.00 | 80 | 1006.1 |
| 20260509012559 | 66 | 294 | 0.0 | 0.0 | 0.00 | 0.00 | 0.00 | 78 | 1005.9 |
| 20260509012022 | 67 | 265 | 0.0 | 0.0 | 0.00 | 0.00 | 0.00 | 76 | 1005.5 |
| 20260509011528 | 68 | 355 | 0.0 | 0.0 | 0.00 | 0.00 | 0.00 | 73 | 1005.0 |
| 20260509011053 | 68 | 23 | 0.0 | 0.0 | 0.00 | 0.00 | 0.00 | 70 | 1004.8 |
| 20260509010557 | 69 | 47 | 0.0 | 0.0 | 0.00 | 0.00 | 0.00 | 67 | 1004.7 |
| 20260509005525 | 69 | 192 | 0.0 | 0.0 | 0.00 | 0.00 | 0.00 | 66 | 1004.7 |
| 20260509005031 | 69 | 192 | 0.0 | 0.0 | 0.00 | 0.00 | 0.00 | 66 | 1004.8 |
| 20260509004557 | 69 | 192 | 0.0 | 0.0 | 0.00 | 0.00 | 0.00 | 67 | 1004.8 |
| 20260509004040 | 69 | 165 | 0.0 | 0.0 | 0.00 | 0.00 | 0.00 | 68 | 1004.9 |
| 20260509003526 | 69 | 161 | 0.0 | 0.0 | 0.00 | 0.00 | 0.00 | 68 | 1004.8 |
| 20260509003031 | 68 | 161 | 0.0 | 0.0 | 0.00 | 0.00 | 0.00 | 69 | 1004.7 |
| 20260509002557 | 68 | 116 | 0.0 | 0.0 | 0.00 | 0.00 | 0.00 | 70 | 1004.7 |
| 20260509002024 | 68 | 116 | 0.0 | 0.0 | 0.00 | 0.00 | 0.00 | 70 | 1004.6 |
| 20260509001530 | 68 | 134 | 0.0 | 0.0 | 0.00 | 0.00 | 0.00 | 70 | 1004.4 |
| 20260509001035 | 68 | 158 | 0.0 | 0.0 | 0.00 | 0.00 | 0.00 | 70 | 1004.3 |
| 20260509000540 | 69 | 144 | 0.0 | 0.0 | 0.00 | 0.00 | 0.00 | 69 | 1004.4 |
| 20260509000046 | 69 | 134 | 0.0 | 0.0 | 0.00 | 0.00 | 0.00 | 69 | 1004.2 |
| 20260508235530 | 69 | 109 | 0.0 | 0.0 | 0.00 | 0.00 | 0.00 | 68 | 1004.3 |
| 20260508235036 | 69 | 114 | 0.0 | 0.0 | 0.00 | 0.00 | 0.00 | 68 | 1004.3 |
| 20260508234522 | 69 | 128 | 0.0 | 0.0 | 0.00 | 0.00 | 0.00 | 67 | 1004.3 |
| 20260508234026 | 69 | 138 | 0.0 | 0.0 | 0.00 | 0.00 | 0.00 | 68 | 1004.4 |
| 20260508233534 | 69 | 134 | 0.0 | 0.0 | 0.00 | 0.00 | 0.00 | 67 | 1004.6 |
| 20260508233039 | 69 | 118 | 0.0 | 0.0 | 0.00 | 0.00 | 0.00 | 66 | 1004.8 |
| 20260508232530 | 69 | 138 | 0.0 | 0.0 | 0.00 | 0.00 | 0.00 | 66 | 1005.0 |
| 20260508232036 | 69 | 141 | 0.0 | 0.0 | 0.00 | 0.00 | 0.00 | 66 | 1005.1 |
| 20260508231523 | 69 | 148 | 0.0 | 0.0 | 0.00 | 0.00 | 0.00 | 65 | 1005.3 |
| 20260508231030 | 69 | 106 | 0.0 | 0.0 | 0.00 | 0.00 | 0.00 | 66 | 1005.2 |
| 20260508230537 | 69 | 93 | 0.0 | 0.0 | 0.00 | 0.00 | 0.00 | 65 | 1005.1 |
| 20260508230044 | 69 | 127 | 0.0 | 0.0 | 0.00 | 0.00 | 0.00 | 65 | 1005.2 |
| 20260508225551 | 70 | 80 | 0.0 | 0.0 | 0.00 | 0.00 | 0.00 | 65 | 1005.6 |
| 20260508225037 | 70 | 41 | 0.0 | 0.0 | 0.00 | 0.00 | 0.00 | 64 | 1005.8 |
| 20260508224544 | 70 | 40 | 0.0 | 0.0 | 0.00 | 0.00 | 0.00 | 64 | 1005.9 |
| 20260508224030 | 70 | 355 | 0.0 | 0.0 | 0.00 | 0.00 | 0.00 | 63 | 1006.0 |
| 20260508223537 | 71 | 350 | 0.0 | 0.0 | 0.00 | 0.00 | 0.00 | 63 | 1006.1 |
| 20260508223024 | 71 | 351 | 0.0 | 0.0 | 0.00 | 0.00 | 0.00 | 61 | 1006.4 |
| 20260508222550 | 72 | 284 | 0.0 | 0.0 | 0.00 | 0.00 | 0.00 | 61 | 1006.6 |
| 20260508222039 | 73 | 274 | 0.0 | 0.0 | 0.00 | 0.00 | 0.00 | 62 | 1006.5 |
| 20260508221526 | 73 | 269 | 0.0 | 0.0 | 0.00 | 0.00 | 0.00 | 57 | 1006.3 |
| 20260508221032 | 73 | 292 | 0.0 | 0.0 | 0.00 | 0.00 | 0.00 | 55 | 1006.4 |
| 20260508220538 | 73 | 218 | 0.0 | 0.0 | 0.00 | 0.00 | 0.00 | 51 | 1006.4 |
| 20260508220024 | 74 | 218 | 0.0 | 3.0 | 0.00 | 0.00 | 0.00 | 49 | 1006.4 |
| 20260508215531 | 74 | 196 | 0.0 | 3.0 | 0.00 | 0.00 | 0.00 | 48 | 1006.5 |
| 20260508215038 | 74 | 236 | 0.0 | 1.0 | 0.00 | 0.00 | 0.00 | 59 | 1006.6 |
| 20260508214545 | 75 | 243 | 0.0 | 0.0 | 0.00 | 0.00 | 0.00 | 57 | 1006.5 |
| 20260508214032 | 75 | 243 | 0.0 | 0.0 | 0.00 | 0.00 | 0.00 | 53 | 1006.6 |
| 20260508213559 | 76 | 255 | 0.0 | 0.0 | 0.00 | 0.00 | 0.00 | 50 | 1006.7 |
| 20260508213025 | 76 | 267 | 0.0 | 0.0 | 0.00 | 0.00 | 0.00 | 48 | 1006.4 |
| 20260508212536 | 76 | 229 | 0.0 | 1.0 | 0.00 | 0.00 | 0.00 | 48 | 1006.4 |
| 20260508212022 | 76 | 298 | 0.0 | 1.0 | 0.00 | 0.00 | 0.00 | 45 | 1006.4 |
| 20260508211548 | 76 | 256 | 0.0 | 1.0 | 0.00 | 0.00 | 0.00 | 45 | 1006.3 |
| 20260508211033 | 76 | 231 | 0.0 | 1.0 | 0.00 | 0.00 | 0.00 | 43 | 1005.9 |
| 20260508210538 | 76 | 192 | 0.0 | 2.0 | 0.00 | 0.00 | 0.00 | 43 | 1005.6 |
| 20260508210024 | 76 | 229 | 0.0 | 2.0 | 0.00 | 0.00 | 0.00 | 42 | 1005.8 |
| 20260508205531 | 76 | 271 | 0.0 | 2.0 | 0.00 | 0.00 | 0.00 | 43 | 1006.0 |
| 20260508205037 | 77 | 207 | 0.0 | 4.0 | 0.00 | 0.00 | 0.00 | 43 | 1006.0 |
| 20260508204543 | 77 | 216 | 0.0 | 4.0 | 0.00 | 0.00 | 0.00 | 43 | 1006.0 |
| 20260508204028 | 77 | 255 | 0.0 | 3.0 | 0.00 | 0.00 | 0.00 | 42 | 1006.0 |
| 20260508203534 | 77 | 207 | 0.0 | 4.0 | 0.00 | 0.00 | 0.00 | 41 | 1006.1 |
| 20260508203024 | 78 | 254 | 1.0 | 4.0 | 0.00 | 0.00 | 0.00 | 43 | 1006.3 |
| 20260508202530 | 77 | 250 | 0.0 | 10.0 | 0.00 | 0.00 | 0.00 | 43 | 1006.4 |
| 20260508202036 | 76 | 193 | 0.0 | 10.0 | 0.00 | 0.00 | 0.00 | 44 | 1006.5 |
| 20260508201522 | 76 | 238 | 0.0 | 9.0 | 0.00 | 0.00 | 0.00 | 44 | 1006.5 |
| 20260508201048 | 76 | 182 | 1.0 | 9.0 | 0.00 | 0.00 | 0.00 | 43 | 1006.6 |
| 20260508200533 | 76 | 184 | 0.0 | 8.0 | 0.00 | 0.00 | 0.00 | 45 | 1006.6 |
| 20260508200059 | 76 | 247 | 1.0 | 7.0 | 0.00 | 0.00 | 0.00 | 45 | 1006.7 |
| 20260508195544 | 76 | 220 | 0.0 | 5.0 | 0.00 | 0.00 | 0.00 | 44 | 1006.8 |
| 20260508195029 | 76 | 290 | 0.0 | 2.0 | 0.00 | 0.00 | 0.00 | 46 | 1006.9 |
| 20260508194535 | 76 | 200 | 0.0 | 7.0 | 0.00 | 0.00 | 0.00 | 45 | 1007.0 |
| 20260508194101 | 76 | 198 | 0.0 | 9.0 | 0.00 | 0.00 | 0.00 | 46 | 1007.1 |
| 20260508193526 | 76 | 209 | 0.0 | 9.0 | 0.00 | 0.00 | 0.00 | 45 | 1007.1 |
| 20260508193032 | 75 | 203 | 1.0 | 9.0 | 0.00 | 0.00 | 0.00 | 45 | 1007.2 |
| 20260508192522 | 75 | 259 | 0.0 | 6.0 | 0.00 | 0.00 | 0.00 | 43 | 1007.4 |
| 20260508192028 | 75 | 189 | 1.0 | 6.0 | 0.00 | 0.00 | 0.00 | 46 | 1007.5 |
| 20260508191533 | 75 | 196 | 1.0 | 6.0 | 0.00 | 0.00 | 0.00 | 47 | 1007.5 |
| 20260508191039 | 74 | 151 | 0.0 | 7.0 | 0.00 | 0.00 | 0.00 | 48 | 1007.5 |
| 20260508190526 | 74 | 179 | 1.0 | 7.0 | 0.00 | 0.00 | 0.00 | 49 | 1007.6 |
| 20260508190032 | 74 | 214 | 1.0 | 9.0 | 0.00 | 0.00 | 0.00 | 48 | 1007.6 |
| 20260508185538 | 74 | 214 | 1.0 | 9.0 | 0.00 | 0.00 | 0.00 | 48 | 1007.6 |
| 20260508185025 | 74 | 216 | 1.0 | 6.0 | 0.00 | 0.00 | 0.00 | 47 | 1007.6 |
| 20260508184550 | 74 | 210 | 1.0 | 12.0 | 0.00 | 0.00 | 0.00 | 47 | 1007.7 |
| 20260508184034 | 74 | 201 | 1.0 | 12.0 | 0.00 | 0.00 | 0.00 | 48 | 1007.8 |
| 20260508183539 | 73 | 175 | 0.0 | 4.0 | 0.00 | 0.00 | 0.00 | 50 | 1007.9 |
| 20260508183025 | 73 | 219 | 0.0 | 7.0 | 0.00 | 0.00 | 0.00 | 50 | 1008.0 |
| 20260508182533 | 73 | 227 | 1.0 | 7.0 | 0.00 | 0.00 | 0.00 | 51 | 1008.0 |
| 20260508182037 | 73 | 196 | 0.0 | 12.0 | 0.00 | 0.00 | 0.00 | 51 | 1008.1 |
| 20260508181521 | 73 | 198 | 1.0 | 12.0 | 0.00 | 0.00 | 0.00 | 51 | 1008.3 |
| 20260508181026 | 73 | 184 | 1.0 | 7.0 | 0.00 | 0.00 | 0.00 | 50 | 1008.3 |
| 20260508180531 | 73 | 169 | 1.0 | 6.0 | 0.00 | 0.00 | 0.00 | 50 | 1008.4 |
| 20260508180036 | 73 | 278 | 1.0 | 8.0 | 0.00 | 0.00 | 0.00 | 51 | 1008.4 |
| 20260508175541 | 72 | 244 | 2.0 | 7.0 | 0.00 | 0.00 | 0.00 | 50 | 1008.5 |
| 20260508175025 | 72 | 204 | 0.0 | 5.0 | 0.00 | 0.00 | 0.00 | 54 | 1008.6 |
| 20260508174530 | 72 | 190 | 0.0 | 5.0 | 0.00 | 0.00 | 0.00 | 54 | 1008.7 |
| 20260508174035 | 72 | 261 | 1.0 | 5.0 | 0.00 | 0.00 | 0.00 | 54 | 1008.8 |
| 20260508173539 | 72 | 187 | 1.0 | 5.0 | 0.00 | 0.00 | 0.00 | 52 | 1008.8 |
| 20260508173022 | 71 | 202 | 1.0 | 6.0 | 0.00 | 0.00 | 0.00 | 53 | 1009.0 |
| 20260508172532 | 71 | 232 | 1.0 | 8.0 | 0.00 | 0.00 | 0.00 | 53 | 1009.1 |
| 20260508172036 | 71 | 187 | 1.0 | 7.0 | 0.00 | 0.00 | 0.00 | 54 | 1009.2 |
| 20260508171522 | 71 | 192 | 1.0 | 9.0 | 0.00 | 0.00 | 0.00 | 54 | 1009.2 |
| 20260508171029 | 71 | 250 | 2.0 | 10.0 | 0.00 | 0.00 | 0.00 | 53 | 1009.3 |
| 20260508170534 | 71 | 248 | 2.0 | 10.0 | 0.00 | 0.00 | 0.00 | 53 | 1009.5 |
| 20260508170037 | 71 | 257 | 1.0 | 6.0 | 0.00 | 0.00 | 0.00 | 55 | 1009.4 |
| 20260508165521 | 70 | 191 | 1.0 | 4.0 | 0.00 | 0.00 | 0.00 | 55 | 1009.6 |
| 20260508165026 | 70 | 190 | 1.0 | 6.0 | 0.00 | 0.00 | 0.00 | 57 | 1009.7 |
| 20260508164530 | 70 | 234 | 1.0 | 10.0 | 0.00 | 0.00 | 0.00 | 56 | 1009.8 |
| 20260508164035 | 70 | 198 | 1.0 | 7.0 | 0.00 | 0.00 | 0.00 | 56 | 1009.9 |
| 20260508163525 | 70 | 194 | 0.0 | 7.0 | 0.00 | 0.00 | 0.00 | 57 | 1009.8 |
| 20260508163031 | 69 | 168 | 2.0 | 10.0 | 0.00 | 0.00 | 0.00 | 56 | 1009.9 |
| 20260508162556 | 69 | 202 | 0.0 | 8.0 | 0.00 | 0.00 | 0.00 | 58 | 1010.0 |
| 20260508162100 | 68 | 287 | 2.0 | 8.0 | 0.00 | 0.00 | 0.00 | 58 | 1010.1 |
| 20260508161544 | 68 | 189 | 1.0 | 8.0 | 0.00 | 0.00 | 0.00 | 58 | 1010.0 |
| 20260508161028 | 67 | 202 | 1.0 | 8.0 | 0.00 | 0.00 | 0.00 | 61 | 1010.1 |
| 20260508160552 | 67 | 261 | 0.0 | 2.0 | 0.00 | 0.00 | 0.00 | 61 | 1010.2 |
| 20260508160054 | 66 | 237 | 0.0 | 5.0 | 0.00 | 0.00 | 0.00 | 61 | 1010.2 |
| 20260508155559 | 66 | 224 | 0.0 | 9.0 | 0.00 | 0.00 | 0.00 | 60 | 1010.3 |
| 20260508155045 | 66 | 255 | 3.0 | 9.0 | 0.00 | 0.00 | 0.00 | 59 | 1010.4 |
| 20260508154527 | 66 | 198 | 2.0 | 14.0 | 0.00 | 0.00 | 0.00 | 59 | 1010.4 |
| 20260508154034 | 66 | 210 | 0.0 | 8.0 | 0.00 | 0.00 | 0.00 | 60 | 1010.5 |
| 20260508153542 | 66 | 257 | 2.0 | 8.0 | 0.00 | 0.00 | 0.00 | 59 | 1010.4 |
| 20260508153026 | 67 | 241 | 1.0 | 6.0 | 0.00 | 0.00 | 0.00 | 58 | 1010.5 |
| 20260508152533 | 67 | 211 | 0.0 | 6.0 | 0.00 | 0.00 | 0.00 | 59 | 1010.7 |
| 20260508152039 | 66 | 241 | 0.0 | 8.0 | 0.00 | 0.00 | 0.00 | 60 | 1010.6 |
| 20260508151527 | 66 | 260 | 1.0 | 10.0 | 0.00 | 0.00 | 0.00 | 59 | 1010.6 |
| 20260508151036 | 65 | 244 | 2.0 | 15.0 | 0.00 | 0.00 | 0.00 | 60 | 1010.6 |
| 20260508150524 | 65 | 211 | 1.0 | 4.0 | 0.00 | 0.00 | 0.00 | 61 | 1010.8 |
| 20260508150030 | 65 | 250 | 0.0 | 3.0 | 0.00 | 0.00 | 0.00 | 62 | 1010.9 |
| 20260508145536 | 65 | 215 | 0.0 | 2.0 | 0.00 | 0.00 | 0.00 | 63 | 1011.0 |
| 20260508145036 | 64 | 218 | 0.0 | 2.0 | 0.00 | 0.00 | 0.00 | 64 | 1011.1 |
| 20260508144601 | 64 | 212 | 0.0 | 3.0 | 0.00 | 0.00 | 0.00 | 65 | 1011.0 |
| 20260508144046 | 63 | 205 | 0.0 | 3.0 | 0.00 | 0.00 | 0.00 | 65 | 1011.0 |
| 20260508143531 | 63 | 190 | 0.0 | 2.0 | 0.00 | 0.00 | 0.00 | 65 | 1010.9 |
| 20260508143036 | 63 | 259 | 0.0 | 2.0 | 0.00 | 0.00 | 0.00 | 66 | 1011.1 |
| 20260508142602 | 62 | 231 | 0.0 | 2.0 | 0.00 | 0.00 | 0.00 | 66 | 1011.2 |
| 20260508142101 | 62 | 228 | 0.0 | 6.0 | 0.00 | 0.00 | 0.00 | 66 | 1011.0 |
| 20260508141524 | 62 | 227 | 0.0 | 6.0 | 0.00 | 0.00 | 0.00 | 66 | 1010.9 |
| 20260508141029 | 62 | 189 | 1.0 | 8.0 | 0.00 | 0.00 | 0.00 | 65 | 1011.0 |
| 20260508140534 | 62 | 265 | 1.0 | 8.0 | 0.00 | 0.00 | 0.00 | 65 | 1010.9 |
| 20260508140023 | 62 | 242 | 2.0 | 8.0 | 0.00 | 0.00 | 0.00 | 65 | 1011.0 |
| 20260508135548 | 61 | 167 | 1.0 | 7.0 | 0.00 | 0.00 | 0.00 | 65 | 1011.0 |
| 20260508135032 | 61 | 232 | 1.0 | 6.0 | 0.00 | 0.00 | 0.00 | 66 | 1011.1 |
| 20260508134556 | 60 | 204 | 1.0 | 9.0 | 0.00 | 0.00 | 0.00 | 66 | 1011.1 |
| 20260508134037 | 60 | 198 | 1.0 | 9.0 | 0.00 | 0.00 | 0.00 | 66 | 1011.1 |
| 20260508133523 | 60 | 211 | 1.0 | 4.0 | 0.00 | 0.00 | 0.00 | 67 | 1011.0 |
| 20260508133046 | 59 | 217 | 1.0 | 6.0 | 0.00 | 0.00 | 0.00 | 67 | 1011.0 |
| 20260508132530 | 59 | 225 | 1.0 | 6.0 | 0.00 | 0.00 | 0.00 | 67 | 1011.0 |
| 20260508132033 | 59 | 205 | 1.0 | 6.0 | 0.00 | 0.00 | 0.00 | 67 | 1010.9 |
| 20260508131538 | 58 | 192 | 1.0 | 6.0 | 0.00 | 0.00 | 0.00 | 68 | 1010.9 |
| 20260508131023 | 58 | 232 | 0.0 | 5.0 | 0.00 | 0.00 | 0.00 | 67 | 1010.8 |
| 20260508130548 | 58 | 202 | 0.0 | 2.0 | 0.00 | 0.00 | 0.00 | 68 | 1010.8 |
| 20260508130054 | 58 | 207 | 0.0 | 3.0 | 0.00 | 0.00 | 0.00 | 67 | 1010.7 |
| 20260508125539 | 57 | 198 | 0.0 | 1.0 | 0.00 | 0.00 | 0.00 | 68 | 1010.7 |
| 20260508125027 | 57 | 209 | 0.0 | 2.0 | 0.00 | 0.00 | 0.00 | 68 | 1010.7 |
| 20260508124534 | 57 | 226 | 0.0 | 2.0 | 0.00 | 0.00 | 0.00 | 69 | 1010.7 |
| 20260508124021 | 56 | 217 | 0.0 | 3.0 | 0.00 | 0.00 | 0.00 | 69 | 1010.6 |
| 20260508123526 | 56 | 197 | 0.0 | 3.0 | 0.00 | 0.00 | 0.00 | 70 | 1010.7 |
| 20260508123033 | 56 | 183 | 1.0 | 3.0 | 0.00 | 0.00 | 0.00 | 70 | 1010.7 |
| 20260508122538 | 56 | 184 | 0.0 | 9.0 | 0.00 | 0.00 | 0.00 | 70 | 1010.7 |
| 20260508122022 | 56 | 217 | 1.0 | 9.0 | 0.00 | 0.00 | 0.00 | 70 | 1010.5 |
| 20260508121527 | 56 | 210 | 0.0 | 6.0 | 0.00 | 0.00 | 0.00 | 70 | 1010.4 |
| 20260508121031 | 55 | 175 | 0.0 | 4.0 | 0.00 | 0.00 | 0.00 | 70 | 1010.5 |
| 20260508120532 | 55 | 180 | 0.0 | 4.0 | 0.00 | 0.00 | 0.00 | 70 | 1010.4 |
| 20260508120037 | 55 | 258 | 0.0 | 2.0 | 0.00 | 0.00 | 0.00 | 70 | 1010.4 |
| 20260508115528 | 55 | 208 | 0.0 | 3.0 | 0.00 | 0.00 | 0.00 | 70 | 1010.4 |
| 20260508115033 | 55 | 208 | 0.0 | 2.0 | 0.00 | 0.00 | 0.00 | 70 | 1010.4 |
| 20260508114538 | 55 | 212 | 0.0 | 2.0 | 0.00 | 0.00 | 0.00 | 70 | 1010.3 |
| 20260508114025 | 55 | 208 | 0.0 | 1.0 | 0.00 | 0.00 | 0.00 | 71 | 1010.3 |
| 20260508113531 | 55 | 211 | 0.0 | 1.0 | 0.00 | 0.00 | 0.00 | 70 | 1010.2 |
| 20260508113057 | 55 | 207 | 0.0 | 1.0 | 0.00 | 0.00 | 0.00 | 70 | 1010.3 |
| 20260508112522 | 55 | 189 | 0.0 | 2.0 | 0.00 | 0.00 | 0.00 | 70 | 1010.2 |
| 20260508112026 | 55 | 182 | 0.0 | 2.0 | 0.00 | 0.00 | 0.00 | 69 | 1010.2 |
| 20260508111531 | 55 | 200 | 1.0 | 2.0 | 0.00 | 0.00 | 0.00 | 69 | 1010.1 |
| 20260508111035 | 55 | 211 | 0.0 | 4.0 | 0.00 | 0.00 | 0.00 | 69 | 1010.1 |
| 20260508110521 | 55 | 203 | 0.0 | 4.0 | 0.00 | 0.00 | 0.00 | 69 | 1010.0 |
| 20260508110025 | 55 | 225 | 0.0 | 4.0 | 0.00 | 0.00 | 0.00 | 70 | 1010.0 |
| 20260508105533 | 55 | 215 | 0.0 | 4.0 | 0.00 | 0.00 | 0.00 | 70 | 1010.0 |
| 20260508105059 | 54 | 184 | 0.0 | 2.0 | 0.00 | 0.00 | 0.00 | 71 | 1010.0 |
| 20260508104524 | 54 | 193 | 0.0 | 1.0 | 0.00 | 0.00 | 0.00 | 71 | 1010.0 |
| 20260508104031 | 54 | 230 | 0.0 | 1.0 | 0.00 | 0.00 | 0.00 | 72 | 1010.1 |
| 20260508103537 | 54 | 218 | 0.0 | 1.0 | 0.00 | 0.00 | 0.00 | 72 | 1010.1 |
| 20260508103040 | 54 | 202 | 0.0 | 0.0 | 0.00 | 0.00 | 0.00 | 72 | 1010.1 |
| 20260508102524 | 53 | 209 | 0.0 | 0.0 | 0.00 | 0.00 | 0.00 | 73 | 1010.1 |
| 20260508102028 | 53 | 210 | 0.0 | 1.0 | 0.00 | 0.00 | 0.00 | 73 | 1010.2 |
| 20260508101548 | 53 | 214 | 0.0 | 1.0 | 0.00 | 0.00 | 0.00 | 73 | 1010.1 |
| 20260508101032 | 53 | 163 | 0.0 | 0.0 | 0.00 | 0.00 | 0.00 | 72 | 1010.3 |
| 20260508100537 | 53 | 192 | 0.0 | 0.0 | 0.00 | 0.00 | 0.00 | 72 | 1010.2 |
| 20260508100021 | 54 | 219 | 0.0 | 1.0 | 0.00 | 0.00 | 0.00 | 72 | 1010.3 |
| 20260508095526 | 54 | 198 | 0.0 | 1.0 | 0.00 | 0.00 | 0.00 | 72 | 1010.2 |
| 20260508095033 | 54 | 182 | 0.0 | 1.0 | 0.00 | 0.00 | 0.00 | 71 | 1010.3 |
| 20260508094538 | 54 | 188 | 0.0 | 0.0 | 0.00 | 0.00 | 0.00 | 71 | 1010.3 |
| 20260508094022 | 54 | 210 | 0.0 | 2.0 | 0.00 | 0.00 | 0.00 | 71 | 1010.1 |
| 20260508093528 | 54 | 215 | 0.0 | 2.0 | 0.00 | 0.00 | 0.00 | 71 | 1010.1 |
| 20260508093030 | 54 | 200 | 0.0 | 1.0 | 0.00 | 0.00 | 0.00 | 70 | 1010.1 |
| 20260508092554 | 54 | 195 | 0.0 | 1.0 | 0.00 | 0.00 | 0.00 | 70 | 1010.2 |
| 20260508092035 | 54 | 184 | 0.0 | 1.0 | 0.00 | 0.00 | 0.00 | 69 | 1010.3 |
| 20260508091538 | 54 | 194 | 0.0 | 1.0 | 0.00 | 0.00 | 0.00 | 69 | 1010.3 |
| 20260508091039 | 54 | 191 | 0.0 | 1.0 | 0.00 | 0.00 | 0.00 | 69 | 1010.4 |
| 20260508090543 | 55 | 213 | 0.0 | 1.0 | 0.00 | 0.00 | 0.00 | 68 | 1010.4 |
| 20260508090046 | 55 | 216 | 0.0 | 1.0 | 0.00 | 0.00 | 0.00 | 68 | 1010.4 |
| 20260508085530 | 55 | 180 | 0.0 | 4.0 | 0.00 | 0.00 | 0.00 | 68 | 1010.4 |
| 20260508085052 | 55 | 209 | 0.0 | 4.0 | 0.00 | 0.00 | 0.00 | 68 | 1010.4 |
| 20260508084535 | 54 | 185 | 0.0 | 4.0 | 0.00 | 0.00 | 0.00 | 68 | 1010.5 |
| 20260508084024 | 54 | 183 | 0.0 | 0.0 | 0.00 | 0.00 | 0.00 | 68 | 1010.5 |
| 20260508083531 | 54 | 200 | 0.0 | 0.0 | 0.00 | 0.00 | 0.00 | 68 | 1010.5 |
| 20260508083035 | 54 | 195 | 0.0 | 0.0 | 0.00 | 0.00 | 0.00 | 68 | 1010.5 |
| 20260508082522 | 55 | 178 | 0.0 | 0.0 | 0.00 | 0.00 | 0.00 | 68 | 1010.5 |
| 20260508082026 | 55 | 202 | 0.0 | 0.0 | 0.00 | 0.00 | 0.00 | 68 | 1010.6 |
| 20260508081531 | 55 | 190 | 0.0 | 0.0 | 0.00 | 0.00 | 0.00 | 67 | 1010.6 |
| 20260508081036 | 55 | 200 | 0.0 | 0.0 | 0.00 | 0.00 | 0.00 | 67 | 1010.7 |
| 20260508080521 | 55 | 204 | 0.0 | 0.0 | 0.00 | 0.00 | 0.00 | 67 | 1010.7 |
| 20260508080045 | 55 | 183 | 0.0 | 1.0 | 0.00 | 0.00 | 0.00 | 67 | 1010.6 |
| 20260508075550 | 55 | 231 | 0.0 | 1.0 | 0.00 | 0.00 | 0.00 | 67 | 1010.7 |
| 20260508075030 | 55 | 178 | 0.0 | 1.0 | 0.00 | 0.00 | 0.00 | 66 | 1010.7 |
| 20260508074556 | 55 | 202 | 0.0 | 1.0 | 0.00 | 0.00 | 0.00 | 66 | 1010.8 |
| 20260508074101 | 56 | 205 | 0.0 | 1.0 | 0.00 | 0.00 | 0.00 | 65 | 1010.8 |
| 20260508073524 | 56 | 198 | 0.0 | 1.0 | 0.00 | 0.00 | 0.00 | 65 | 1010.8 |
| 20260508073030 | 56 | 223 | 0.0 | 2.0 | 0.00 | 0.00 | 0.00 | 64 | 1010.8 |
| 20260508072534 | 56 | 176 | 0.0 | 2.0 | 0.00 | 0.00 | 0.00 | 64 | 1010.8 |
| 20260508072037 | 56 | 209 | 0.0 | 1.0 | 0.00 | 0.00 | 0.00 | 64 | 1010.8 |
| 20260508071542 | 56 | 196 | 0.0 | 0.0 | 0.00 | 0.00 | 0.00 | 64 | 1010.9 |
| 20260508071027 | 56 | 178 | 0.0 | 0.0 | 0.00 | 0.00 | 0.00 | 64 | 1010.9 |